createdAt,value
2018-02-04T00:01:16.413Z,23.47
2018-02-04T00:03:44.058Z,22.70
2018-02-04T00:06:11.698Z,21.20
2018-02-04T00:08:39.401Z,22.63
2018-02-04T00:11:07.012Z,23.03
2018-02-04T00:13:34.657Z,20.00
2018-02-04T00:16:02.350Z,19.17
2018-02-04T00:18:33.292Z,20.73
2018-02-04T00:21:00.921Z,24.10
2018-02-04T00:23:28.612Z,27.33
2018-02-04T00:25:56.294Z,24.83
2018-02-04T00:28:23.876Z,23.33
2018-02-04T00:30:51.636Z,25.63
2018-02-04T00:33:19.268Z,20.67
2018-02-04T00:35:46.902Z,20.90
2018-02-04T00:38:14.582Z,18.40
2018-02-04T00:40:42.212Z,22.13
2018-02-04T00:43:09.897Z,48.23
2018-02-04T00:45:37.629Z,22.63
2018-02-04T00:48:05.280Z,18.97
2018-02-04T00:50:32.917Z,20.47
2018-02-04T00:53:00.617Z,24.80
2018-02-04T00:55:28.755Z,24.37
2018-02-04T00:57:56.323Z,24.27
2018-02-04T01:00:24.026Z,23.30
2018-02-04T01:02:51.654Z,23.90
2018-02-04T01:05:19.357Z,24.57
2018-02-04T01:10:26.194Z,26.73
2018-02-04T01:12:53.924Z,18.90
2018-02-04T01:15:21.556Z,20.50
2018-02-04T01:17:49.209Z,19.87
2018-02-04T01:20:16.884Z,25.03
2018-02-04T01:22:45.103Z,21.40
2018-02-04T01:25:12.724Z,18.47
2018-02-04T01:27:40.426Z,21.67
2018-02-04T01:30:08.074Z,21.83
2018-02-04T01:32:35.712Z,19.17
2018-02-04T01:35:03.414Z,19.17
2018-02-04T01:37:31.058Z,21.60
2018-02-04T01:39:58.702Z,27.20
2018-02-04T01:42:26.412Z,22.83
2018-02-04T01:44:54.030Z,24.73
2018-02-04T01:47:21.665Z,22.67
2018-02-04T01:49:49.515Z,24.87
2018-02-04T01:52:17.132Z,19.57
2018-02-04T01:54:44.782Z,18.57
2018-02-04T01:57:12.949Z,24.43
2018-02-04T01:59:40.597Z,20.20
2018-02-04T02:02:08.266Z,21.23
2018-02-04T02:04:35.994Z,25.57
2018-02-04T02:07:04.037Z,23.00
2018-02-04T02:09:31.649Z,24.00
2018-02-04T02:11:59.376Z,22.10
2018-02-04T02:14:27.007Z,21.50
2018-02-04T02:16:54.647Z,20.47
2018-02-04T02:19:22.394Z,21.90
2018-02-04T02:21:50.029Z,20.90
2018-02-04T02:26:56.869Z,26.25
2018-02-04T02:29:24.505Z,25.07
2018-02-04T02:31:52.156Z,20.50
2018-02-04T02:34:19.870Z,21.27
2018-02-04T02:36:47.493Z,19.47
2018-02-04T02:41:46.901Z,20.10
2018-02-04T02:44:14.578Z,20.03
2018-02-04T02:46:42.133Z,23.17
2018-02-04T02:49:09.874Z,19.37
2018-02-04T02:51:37.559Z,21.93
2018-02-04T02:54:05.174Z,21.23
2018-02-04T02:56:32.877Z,21.10
2018-02-04T02:59:00.504Z,19.53
2018-02-04T03:01:28.173Z,24.90
2018-02-04T03:03:55.876Z,25.63
2018-02-04T03:06:23.516Z,20.97
2018-02-04T03:08:51.201Z,22.93
2018-02-04T03:11:18.939Z,25.27
2018-02-04T03:13:46.576Z,23.23
2018-02-04T03:16:14.224Z,20.47
2018-02-04T03:18:41.883Z,23.23
2018-02-04T03:21:09.526Z,24.27
2018-02-04T03:23:37.177Z,23.07
2018-02-04T03:26:04.887Z,25.07
2018-02-04T03:28:32.633Z,24.63
2018-02-04T03:31:00.246Z,20.03
2018-02-04T03:33:27.923Z,20.17
2018-02-04T03:35:55.544Z,18.40
2018-02-04T03:38:23.191Z,22.87
2018-02-04T03:40:51.775Z,19.60
2018-02-04T03:43:19.392Z,20.13
2018-02-04T03:45:47.056Z,19.60
2018-02-04T03:50:53.878Z,23.35
2018-02-04T03:53:21.554Z,21.70
2018-02-04T03:55:50.005Z,24.00
2018-02-04T03:58:18.507Z,22.23
2018-02-04T04:00:47.994Z,25.50
2018-02-04T04:03:13.816Z,20.93
2018-02-04T04:05:41.468Z,21.63
2018-02-04T04:08:09.172Z,22.07
2018-02-04T04:10:36.787Z,20.93
2018-02-04T04:13:04.463Z,19.13
2018-02-04T04:15:32.168Z,22.37
2018-02-04T04:17:59.797Z,22.13
2018-02-04T04:20:27.444Z,21.07
2018-02-04T04:22:55.164Z,19.27
2018-02-04T04:25:22.789Z,24.17
2018-02-04T04:27:50.436Z,21.23
2018-02-04T04:30:18.146Z,22.93
2018-02-04T04:32:45.768Z,19.27
2018-02-04T04:35:13.425Z,20.17
2018-02-04T04:37:41.181Z,24.07
2018-02-04T04:40:08.847Z,16.93
2018-02-04T04:42:36.499Z,17.97
2018-02-04T04:45:04.195Z,21.07
2018-02-04T04:47:31.887Z,17.53
2018-02-04T04:49:59.481Z,17.00
2018-02-04T04:52:27.178Z,17.60
2018-02-04T04:54:54.810Z,18.37
2018-02-04T04:57:22.481Z,22.23
2018-02-04T04:59:50.181Z,20.57
2018-02-04T05:02:17.818Z,20.10
2018-02-04T05:04:45.467Z,21.53
2018-02-04T05:07:13.180Z,22.57
2018-02-04T05:09:40.825Z,23.27
2018-02-04T05:14:48.517Z,25.55
2018-02-04T05:17:16.174Z,22.17
2018-02-04T05:19:43.792Z,23.87
2018-02-04T05:22:11.512Z,21.37
2018-02-04T05:24:39.159Z,23.17
2018-02-04T05:27:06.801Z,25.70
2018-02-04T05:29:35.358Z,24.17
2018-02-04T05:32:02.990Z,22.27
2018-02-04T05:34:30.639Z,22.67
2018-02-04T05:36:58.345Z,18.87
2018-02-04T05:39:26.003Z,19.93
2018-02-04T05:41:53.640Z,24.67
2018-02-04T05:44:21.344Z,21.37
2018-02-04T05:46:54.508Z,26.53
2018-02-04T05:49:22.226Z,20.13
2018-02-04T05:51:49.877Z,21.67
2018-02-04T05:54:17.508Z,26.00
2018-02-04T05:56:45.194Z,24.33
2018-02-04T05:59:12.954Z,22.13
2018-02-04T06:01:40.596Z,22.67
2018-02-04T06:04:08.274Z,22.50
2018-02-04T06:06:35.984Z,24.43
2018-02-04T06:09:03.824Z,21.40
2018-02-04T06:11:31.370Z,24.53
2018-02-04T06:13:59.047Z,22.40
2018-02-04T06:16:26.691Z,20.93
2018-02-04T06:18:54.396Z,21.70
2018-02-04T06:21:22.046Z,20.33
2018-02-04T06:26:28.801Z,24.70
2018-02-04T06:28:56.440Z,21.50
2018-02-04T06:31:24.086Z,19.27
2018-02-04T06:33:52.730Z,18.30
2018-02-04T06:36:21.643Z,20.30
2018-02-04T06:38:49.217Z,21.20
2018-02-04T06:41:16.928Z,22.07
2018-02-04T06:43:44.605Z,19.40
2018-02-04T06:46:12.337Z,21.97
2018-02-04T06:48:40.029Z,20.43
2018-02-04T06:51:07.664Z,23.67
2018-02-04T06:53:35.317Z,18.67
2018-02-04T06:56:03.030Z,22.80
2018-02-04T06:58:30.653Z,22.20
2018-02-04T07:00:58.304Z,24.20
2018-02-04T07:03:26.036Z,22.60
2018-02-04T07:05:54.521Z,26.40
2018-02-04T07:08:22.185Z,22.13
2018-02-04T07:10:49.893Z,29.93
2018-02-04T07:13:17.530Z,25.27
2018-02-04T07:15:45.181Z,26.50
2018-02-04T07:18:12.897Z,20.73
2018-02-04T07:20:40.536Z,24.20
2018-02-04T07:23:08.176Z,22.13
2018-02-04T07:25:35.902Z,22.87
2018-02-04T07:28:03.549Z,19.97
2018-02-04T07:30:31.957Z,21.13
2018-02-04T07:32:59.665Z,22.07
2018-02-04T07:35:27.317Z,21.10
2018-02-04T07:37:54.992Z,20.70
2018-02-04T07:40:22.696Z,22.57
2018-02-04T07:42:50.372Z,25.60
2018-02-04T07:45:18.008Z,21.33
2018-02-04T07:47:45.703Z,23.73
2018-02-04T07:52:52.620Z,24.83
2018-02-04T07:55:20.254Z,24.13
2018-02-04T07:57:47.902Z,21.93
2018-02-04T08:00:16.424Z,20.33
2018-02-04T08:02:44.068Z,18.63
2018-02-04T08:05:11.716Z,26.77
2018-02-04T08:07:39.452Z,20.93
2018-02-04T08:10:07.556Z,20.93
2018-02-04T08:12:35.197Z,23.63
2018-02-04T08:15:02.909Z,22.53
2018-02-04T08:17:30.522Z,20.27
2018-02-04T08:19:58.173Z,17.23
2018-02-04T08:22:25.876Z,16.60
2018-02-04T08:24:53.504Z,17.83
2018-02-04T08:27:21.154Z,8.33
2018-02-04T08:29:48.880Z,5.80
2018-02-04T08:32:16.497Z,6.93
2018-02-04T08:34:44.142Z,6.60
2018-02-04T08:37:13.510Z,7.63
2018-02-04T08:39:41.155Z,8.53
2018-02-04T08:42:09.751Z,10.27
2018-02-04T08:44:37.458Z,8.47
2018-02-04T08:47:05.088Z,14.63
2018-02-04T08:49:33.537Z,9.43
2018-02-04T08:52:01.213Z,12.10
2018-02-04T08:54:28.857Z,10.17
2018-02-04T08:56:56.485Z,16.17
2018-02-04T08:59:24.176Z,19.30
2018-02-04T09:01:51.836Z,13.77
2018-02-04T09:04:19.477Z,20.17
2018-02-04T09:06:47.167Z,15.47
2018-02-04T09:09:15.911Z,10.50
2018-02-04T09:14:23.958Z,18.37
2018-02-04T09:16:51.594Z,16.57
2018-02-04T09:19:21.357Z,16.20
2018-02-04T09:21:49.057Z,12.03
2018-02-04T09:24:17.493Z,10.00
2018-02-04T09:26:46.486Z,9.33
2018-02-04T09:29:14.308Z,9.57
2018-02-04T09:31:41.880Z,8.13
2018-02-04T09:34:09.519Z,8.83
2018-02-04T09:36:37.192Z,7.87
2018-02-04T09:39:09.035Z,9.10
2018-02-04T09:44:27.020Z,6.97
2018-02-04T09:46:55.189Z,7.87
2018-02-04T09:49:23.089Z,6.70
2018-02-04T09:51:51.176Z,4.33
2018-02-04T09:54:18.928Z,4.80
2018-02-04T09:56:47.436Z,5.50
2018-02-04T10:02:05.631Z,5.32
2018-02-04T10:07:22.932Z,7.12
2018-02-04T10:09:50.606Z,6.30
2018-02-04T10:12:18.255Z,6.43
2018-02-04T10:14:45.934Z,4.80
2018-02-04T10:17:13.610Z,4.83
2018-02-04T10:19:41.230Z,9.27
2018-02-04T10:22:09.868Z,6.43
2018-02-04T10:24:37.397Z,6.90
2018-02-04T10:27:05.063Z,6.47
2018-02-04T10:29:32.682Z,6.87
2018-02-04T10:32:00.374Z,7.87
2018-02-04T10:34:28.023Z,11.43
2018-02-04T10:36:55.658Z,10.33
2018-02-04T10:39:23.373Z,12.63
2018-02-04T10:41:50.988Z,7.30
2018-02-04T10:44:20.442Z,8.27
2018-02-04T10:46:46.378Z,9.50
2018-02-04T10:49:14.072Z,6.63
2018-02-04T10:51:47.366Z,8.13
2018-02-04T10:54:14.994Z,8.00
2018-02-04T10:56:43.634Z,9.10
2018-02-04T10:59:12.057Z,7.70
2018-02-04T11:01:40.212Z,8.23
2018-02-04T11:04:07.929Z,7.73
2018-02-04T11:06:36.014Z,7.87
2018-02-04T11:11:43.393Z,9.02
2018-02-04T11:14:13.105Z,9.10
2018-02-04T11:16:41.076Z,10.33
2018-02-04T11:19:10.424Z,8.17
2018-02-04T11:21:39.529Z,7.10
2018-02-04T11:24:07.144Z,7.77
2018-02-04T11:26:35.986Z,9.80
2018-02-04T11:29:03.521Z,8.40
2018-02-04T11:31:31.161Z,10.93
2018-02-04T11:33:59.811Z,10.33
2018-02-04T11:36:27.453Z,8.53
2018-02-04T11:38:55.078Z,8.50
2018-02-04T11:41:22.753Z,9.73
2018-02-04T11:43:50.398Z,7.17
2018-02-04T11:46:18.048Z,10.13
2018-02-04T11:48:45.777Z,11.00
2018-02-04T11:51:13.420Z,8.67
2018-02-04T11:53:41.798Z,9.97
2018-02-04T11:56:10.136Z,10.73
2018-02-04T11:58:38.331Z,7.17
2018-02-04T12:01:06.494Z,6.90
2018-02-04T12:03:34.179Z,10.07
2018-02-04T12:06:01.817Z,7.53
2018-02-04T12:08:29.437Z,10.53
2018-02-04T12:10:57.156Z,10.53
2018-02-04T12:13:24.793Z,6.20
2018-02-04T12:15:52.445Z,8.57
2018-02-04T12:18:20.178Z,9.27
2018-02-04T12:20:47.823Z,9.97
2018-02-04T12:23:15.448Z,8.77
2018-02-04T12:25:43.181Z,8.17
2018-02-04T12:28:11.004Z,5.73
2018-02-04T12:30:38.609Z,8.30
2018-02-04T12:35:45.530Z,8.52
2018-02-04T12:38:13.249Z,7.37
2018-02-04T12:40:40.898Z,7.73
2018-02-04T12:43:08.525Z,8.27
2018-02-04T12:45:36.262Z,7.07
2018-02-04T12:48:03.928Z,11.97
2018-02-04T12:50:31.573Z,8.13
2018-02-04T12:52:59.274Z,9.63
2018-02-04T12:55:26.911Z,9.23
2018-02-04T12:57:54.531Z,7.23
2018-02-04T13:00:22.240Z,8.83
2018-02-04T13:02:49.891Z,7.93
2018-02-04T13:05:17.507Z,9.53
2018-02-04T13:07:45.199Z,9.03
2018-02-04T13:10:13.395Z,10.17
2018-02-04T13:12:40.978Z,6.17
2018-02-04T13:15:08.702Z,5.73
2018-02-04T13:17:36.470Z,5.27
2018-02-04T13:20:04.039Z,4.97
2018-02-04T13:22:32.070Z,4.57
2018-02-04T13:24:59.650Z,4.90
2018-02-04T13:27:27.317Z,6.10
2018-02-04T13:29:55.106Z,4.30
2018-02-04T13:32:22.675Z,5.60
2018-02-04T13:34:50.317Z,3.47
2018-02-04T13:37:18.065Z,4.97
2018-02-04T13:39:45.727Z,5.47
2018-02-04T13:44:53.119Z,5.15
2018-02-04T13:47:21.276Z,4.93
2018-02-04T13:49:48.918Z,3.40
2018-02-04T13:52:16.641Z,7.10
2018-02-04T13:54:44.265Z,4.37
2018-02-04T13:57:11.917Z,5.50
2018-02-04T13:59:39.631Z,4.13
2018-02-04T14:02:07.270Z,6.83
2018-02-04T14:04:34.930Z,3.83
2018-02-04T14:07:02.656Z,3.53
2018-02-04T14:09:30.310Z,5.23
2018-02-04T14:11:58.056Z,4.33
2018-02-04T14:14:25.718Z,3.77
2018-02-04T14:16:53.389Z,4.67
2018-02-04T14:19:21.037Z,3.57
2018-02-04T14:21:49.770Z,4.63
2018-02-04T14:24:17.368Z,3.93
2018-02-04T14:26:45.073Z,4.37
2018-02-04T14:29:12.786Z,6.07
2018-02-04T14:31:40.422Z,4.10
2018-02-04T14:34:08.584Z,4.77
2018-02-04T14:36:36.337Z,4.70
2018-02-04T14:41:43.586Z,4.47
2018-02-04T14:44:11.184Z,3.23
2018-02-04T14:46:38.948Z,3.47
2018-02-04T14:49:06.611Z,3.03
2018-02-04T14:51:34.242Z,3.47
2018-02-04T14:54:01.850Z,4.70
2018-02-04T14:56:29.541Z,3.40
2018-02-04T14:58:57.178Z,4.10
2018-02-04T15:01:24.792Z,4.57
2018-02-04T15:03:52.487Z,4.37
2018-02-04T15:06:20.121Z,3.37
2018-02-04T15:08:47.760Z,3.83
2018-02-04T15:11:15.484Z,5.90
2018-02-04T15:13:43.103Z,3.73
2018-02-04T15:16:10.739Z,4.00
2018-02-04T15:18:38.418Z,4.53
2018-02-04T15:21:06.049Z,3.60
2018-02-04T15:23:33.687Z,3.83
2018-02-04T15:28:41.197Z,4.95
2018-02-04T15:31:08.899Z,6.17
2018-02-04T15:33:36.534Z,8.67
2018-02-04T15:36:04.199Z,3.93
2018-02-04T15:38:31.898Z,3.73
2018-02-04T15:40:59.532Z,11.17
2018-02-04T15:43:27.138Z,5.17
2018-02-04T15:45:54.904Z,3.67
2018-02-04T15:48:22.979Z,4.73
2018-02-04T15:50:51.001Z,6.27
2018-02-04T15:53:18.694Z,5.83
2018-02-04T15:55:46.301Z,4.10
2018-02-04T15:58:14.552Z,5.87
2018-02-04T16:00:42.206Z,7.43
2018-02-04T16:03:09.819Z,8.73
2018-02-04T16:05:37.449Z,9.27
2018-02-04T16:08:05.152Z,12.03
2018-02-04T16:10:32.758Z,9.43
2018-02-04T16:13:00.406Z,8.93
2018-02-04T16:15:28.149Z,7.57
2018-02-04T16:17:55.780Z,9.10
2018-02-04T16:20:23.419Z,13.50
2018-02-04T16:22:51.132Z,12.77
2018-02-04T16:25:19.061Z,10.57
2018-02-04T16:27:46.722Z,11.13
2018-02-04T16:30:14.738Z,12.63
2018-02-04T16:32:42.388Z,10.97
2018-02-04T16:35:10.073Z,7.67
2018-02-04T16:37:37.732Z,11.13
2018-02-04T16:40:05.424Z,11.77
2018-02-04T16:42:33.028Z,15.77
2018-02-04T16:45:00.759Z,11.83
2018-02-04T16:47:28.394Z,10.37
2018-02-04T16:49:56.020Z,15.10
2018-02-04T16:55:02.807Z,14.65
2018-02-04T16:57:30.913Z,13.03
2018-02-04T16:59:58.483Z,14.80
2018-02-04T17:02:26.154Z,12.83
2018-02-04T17:04:54.482Z,15.20
2018-02-04T17:07:22.102Z,15.73
2018-02-04T17:09:49.725Z,21.10
2018-02-04T17:12:17.404Z,27.47
2018-02-04T17:14:45.311Z,20.13
2018-02-04T17:17:13.415Z,27.90
2018-02-04T17:19:41.061Z,34.43
2018-02-04T17:22:08.707Z,17.30
2018-02-04T17:24:36.701Z,26.40
2018-02-04T17:27:04.401Z,24.03
2018-02-04T17:29:32.018Z,27.70
2018-02-04T17:31:59.659Z,27.03
2018-02-04T17:34:27.378Z,28.80
2018-02-04T17:36:55.026Z,17.90
2018-02-04T17:39:22.678Z,15.80
2018-02-04T17:41:50.381Z,15.83
2018-02-04T17:44:18.016Z,12.97
2018-02-04T17:46:45.674Z,16.10
2018-02-04T17:49:13.347Z,14.83
2018-02-04T17:51:40.999Z,14.07
2018-02-04T17:54:08.659Z,15.57
2018-02-04T17:56:36.352Z,14.27
2018-02-04T17:59:03.996Z,12.73
2018-02-04T18:01:32.445Z,12.37
2018-02-04T18:04:00.146Z,11.83
2018-02-04T18:06:28.315Z,14.83
2018-02-04T18:08:55.945Z,17.73
2018-02-04T18:11:23.628Z,13.70
2018-02-04T18:13:51.270Z,11.93
2018-02-04T18:16:18.915Z,11.93
2018-02-04T18:21:25.750Z,13.18
2018-02-04T18:23:53.410Z,13.77
2018-02-04T18:26:21.060Z,12.27
2018-02-04T18:31:42.429Z,14.67
2018-02-04T18:34:10.073Z,11.40
2018-02-04T18:36:37.717Z,11.60
2018-02-04T18:39:06.382Z,12.27
2018-02-04T18:41:34.002Z,11.63
2018-02-04T18:44:01.651Z,11.60
2018-02-04T18:46:29.345Z,13.27
2018-02-04T18:48:56.968Z,13.10
2018-02-04T18:51:24.579Z,13.73
2018-02-04T18:53:52.423Z,13.23
2018-02-04T18:56:20.781Z,16.87
2018-02-04T19:01:30.272Z,12.80
2018-02-04T19:03:57.897Z,12.93
2018-02-04T19:06:25.572Z,16.57
2018-02-04T19:08:53.305Z,14.17
2018-02-04T19:11:20.958Z,10.57
2018-02-04T19:13:49.146Z,10.40
2018-02-04T19:16:16.818Z,11.13
2018-02-04T19:18:44.490Z,12.37
2018-02-04T19:21:12.104Z,8.83
2018-02-04T19:23:41.440Z,12.43
2018-02-04T19:26:09.166Z,10.13
2018-02-04T19:28:36.819Z,12.63
2018-02-04T19:31:04.498Z,9.20
2018-02-04T19:33:32.144Z,9.73
2018-02-04T19:36:00.100Z,11.13
2018-02-04T19:38:27.801Z,12.27
2018-02-04T19:40:55.420Z,10.73
2018-02-04T19:43:23.055Z,13.87
2018-02-04T19:45:51.442Z,11.63
2018-02-04T19:48:19.074Z,12.20
2018-02-04T19:50:46.701Z,12.53
2018-02-04T19:53:20.039Z,12.07
2018-02-04T19:55:48.886Z,10.73
2018-02-04T19:58:16.769Z,13.13
2018-02-04T20:00:44.406Z,9.97
2018-02-04T20:03:12.031Z,11.77
2018-02-04T20:05:39.752Z,13.53
2018-02-04T20:08:07.511Z,10.50
2018-02-04T20:10:35.134Z,10.83
2018-02-04T20:13:02.838Z,13.33
2018-02-04T20:15:30.488Z,8.50
2018-02-04T20:17:58.143Z,8.73
2018-02-04T20:20:25.849Z,7.83
2018-02-04T20:22:53.494Z,10.37
2018-02-04T20:28:00.307Z,11.48
2018-02-04T20:30:27.934Z,11.17
2018-02-04T20:33:07.423Z,11.97
2018-02-04T20:35:35.031Z,11.53
2018-02-04T20:38:02.662Z,11.23
2018-02-04T20:40:30.352Z,12.17
2018-02-04T20:42:57.996Z,11.40
2018-02-04T20:45:25.611Z,13.10
2018-02-04T20:47:53.281Z,11.87
2018-02-04T20:50:20.937Z,12.57
2018-02-04T20:52:48.695Z,13.17
2018-02-04T20:55:16.304Z,12.03
2018-02-04T20:57:43.982Z,10.67
2018-02-04T21:00:11.740Z,11.60
2018-02-04T21:02:39.884Z,12.63
2018-02-04T21:05:07.470Z,10.33
2018-02-04T21:07:35.109Z,10.23
2018-02-04T21:10:02.808Z,11.40
2018-02-04T21:12:30.439Z,9.27
2018-02-04T21:14:58.424Z,13.10
2018-02-04T21:17:26.153Z,13.13
2018-02-04T21:19:53.814Z,9.17
2018-02-04T21:22:22.426Z,10.93
2018-02-04T21:24:50.154Z,10.47
2018-02-04T21:27:17.788Z,13.90
2018-02-04T21:29:45.450Z,12.97
2018-02-04T21:32:13.150Z,10.97
2018-02-04T21:34:40.784Z,10.87
2018-02-04T21:37:08.728Z,9.13
2018-02-04T21:39:41.365Z,9.20
2018-02-04T21:42:08.993Z,8.17
2018-02-04T21:44:36.660Z,7.73
2018-02-04T21:47:04.422Z,8.17
2018-02-04T21:52:11.183Z,5.90
2018-02-04T21:54:38.820Z,5.97
2018-02-04T21:57:06.448Z,5.60
2018-02-04T22:02:12.838Z,5.85
2018-02-04T22:04:40.541Z,6.63
2018-02-04T22:07:08.198Z,5.00
2018-02-04T22:09:36.276Z,6.20
2018-02-04T22:12:04.086Z,6.60
2018-02-04T22:14:31.729Z,5.03
2018-02-04T22:17:00.317Z,5.63
2018-02-04T22:19:28.027Z,5.50
2018-02-04T22:21:56.893Z,11.67
2018-02-04T22:24:24.813Z,6.93
2018-02-04T22:26:52.473Z,4.10
2018-02-04T22:29:20.178Z,6.10
2018-02-04T22:31:47.784Z,7.87
2018-02-04T22:34:16.403Z,6.57
2018-02-04T22:36:46.496Z,6.03
2018-02-04T22:39:14.103Z,6.37
2018-02-04T22:41:41.768Z,6.27
2018-02-04T22:44:09.387Z,5.63
2018-02-04T22:46:39.855Z,7.57
2018-02-04T22:49:04.779Z,6.57
2018-02-04T22:51:32.350Z,6.53
2018-02-04T22:53:59.984Z,8.97
2018-02-04T22:56:27.659Z,9.43
2018-02-04T22:58:55.299Z,7.70
2018-02-04T23:01:22.912Z,10.23
2018-02-04T23:03:54.469Z,9.70
2018-02-04T23:06:22.851Z,9.37
2018-02-04T23:08:50.481Z,7.17
2018-02-04T23:11:18.177Z,6.63
2018-02-04T23:13:45.797Z,7.70
2018-02-04T23:18:45.988Z,5.93
2018-02-04T23:23:52.826Z,4.22
2018-02-04T23:26:20.476Z,4.77
2018-02-04T23:28:48.105Z,5.00
2018-02-04T23:31:15.852Z,3.10
2018-02-04T23:33:43.489Z,3.27
2018-02-04T23:36:11.127Z,5.47
2018-02-04T23:38:38.828Z,4.37
2018-02-04T23:41:06.473Z,4.10
2018-02-04T23:43:34.103Z,6.00
2018-02-04T23:46:01.861Z,5.37
2018-02-04T23:48:29.855Z,4.67
2018-02-04T23:50:57.501Z,3.63
2018-02-04T23:53:25.494Z,8.50
2018-02-04T23:55:53.977Z,4.77
2018-02-04T23:58:22.763Z,5.93
